createdAt,value
2022-11-03T02:20:34.992Z,101055.31
2022-11-03T02:23:31.573Z,101069.72
2022-11-03T02:25:59.271Z,101067.78
2022-11-03T02:28:31.076Z,101066.31
2022-11-03T02:31:17.376Z,101068.03
2022-11-03T02:33:54.869Z,101071.69
2022-11-03T02:36:32.861Z,101079.25
2022-11-03T02:39:11.882Z,101079.16
2022-11-03T02:41:39.890Z,101075.97
2022-11-03T02:44:14.895Z,101085.00
2022-11-03T02:46:43.926Z,101087.72
2022-11-03T02:49:11.730Z,101093.81
2022-11-03T02:51:39.859Z,101090.16
2022-11-03T02:54:23.723Z,101085.75
2022-11-03T02:57:01.147Z,101094.53
2022-11-03T02:59:31.247Z,101091.34
2022-11-03T03:02:09.369Z,101097.09
2022-11-03T03:04:43.849Z,101097.84
2022-11-03T03:07:15.231Z,101103.22
2022-11-03T03:10:10.847Z,101096.16
2022-11-03T03:12:40.277Z,101097.09
2022-11-03T03:15:08.795Z,101097.63
2022-11-03T03:18:06.611Z,101098.81
2022-11-03T03:20:42.145Z,101094.66
2022-11-03T03:23:14.941Z,101093.44
2022-11-03T03:25:50.175Z,101093.78
2022-11-03T03:28:31.297Z,101095.16
2022-11-03T03:30:59.072Z,101096.63
2022-11-03T03:35:54.914Z,101089.66
2022-11-03T03:38:25.476Z,101095.91
2022-11-03T03:40:55.452Z,101100.56
2022-11-03T03:43:23.676Z,101104.13
2022-11-03T03:45:52.710Z,101109.13
2022-11-03T03:48:20.583Z,101118.06
2022-11-03T03:50:49.975Z,101120.59
2022-11-03T03:53:18.928Z,101121.84
2022-11-03T03:55:49.740Z,101132.59
2022-11-03T03:58:17.704Z,101132.59
2022-11-03T04:00:45.635Z,101126.47
2022-11-03T04:03:16.703Z,101130.88
2022-11-03T04:05:45.021Z,101132.59
2022-11-03T04:08:14.585Z,101127.72
2022-11-03T04:11:02.433Z,101131.88
2022-11-03T04:13:48.850Z,101130.13
2022-11-03T04:16:36.990Z,101126.72
2022-11-03T04:19:25.079Z,101128.06
2022-11-03T04:22:11.207Z,101128.94
2022-11-03T04:24:39.461Z,101127.22
2022-11-03T04:27:37.101Z,101120.09
2022-11-03T04:30:16.618Z,101126.22
2022-11-03T04:32:45.477Z,101129.38
2022-11-03T04:35:24.528Z,101132.81
2022-11-03T04:38:02.480Z,101138.69
2022-11-03T04:40:30.509Z,101136.84
2022-11-03T04:42:58.719Z,101141.59
2022-11-03T04:45:31.727Z,101138.19
2022-11-03T04:48:00.630Z,101136.31
2022-11-03T04:50:28.818Z,101141.81
2022-11-03T04:52:58.774Z,101144.88
2022-11-03T04:55:27.040Z,101152.69
2022-11-03T04:58:00.950Z,101159.06
2022-11-03T05:00:29.068Z,101157.72
2022-11-03T05:02:57.746Z,101171.81
2022-11-03T05:05:26.743Z,101169.44
2022-11-03T05:07:56.202Z,101169.19
2022-11-03T05:10:28.648Z,101172.34
2022-11-03T05:12:58.109Z,101179.31
2022-11-03T05:15:35.883Z,101184.81
2022-11-03T05:18:28.903Z,101190.47
2022-11-03T05:21:00.472Z,101190.06
2022-11-03T05:23:28.092Z,101197.03
2022-11-03T05:25:57.841Z,101195.34
2022-11-03T05:28:28.853Z,101198.09
2022-11-03T05:30:56.787Z,101205.34
2022-11-03T05:33:29.484Z,101201.91
2022-11-03T05:35:59.870Z,101206.16
2022-11-03T05:38:30.882Z,101208.47
2022-11-03T05:40:59.290Z,101220.59
2022-11-03T05:43:27.407Z,101227.16
2022-11-03T05:45:57.422Z,101230.69
2022-11-03T05:48:35.560Z,101229.03
2022-11-03T05:51:21.582Z,101237.59
2022-11-03T05:53:57.633Z,101230.44
2022-11-03T05:56:25.596Z,101224.59
2022-11-03T05:58:57.440Z,101229.47
2022-11-03T06:01:33.413Z,101233.72
2022-11-03T06:04:23.257Z,101241.88
2022-11-03T06:06:56.483Z,101241.69
2022-11-03T06:09:24.860Z,101243.84
2022-11-03T06:11:58.073Z,101242.50
2022-11-03T06:14:27.807Z,101244.09
2022-11-03T06:17:02.034Z,101250.03
2022-11-03T06:19:34.685Z,101258.84
2022-11-03T06:22:08.732Z,101254.50
2022-11-03T06:24:36.708Z,101261.81
2022-11-03T06:27:08.580Z,101267.66
2022-11-03T06:29:37.186Z,101274.25
2022-11-03T06:32:05.991Z,101266.91
2022-11-03T06:34:47.738Z,101266.81
2022-11-03T06:37:33.894Z,101260.19
2022-11-03T06:40:22.518Z,101270.06
2022-11-03T06:42:50.311Z,101280.09
2022-11-03T06:45:23.025Z,101271.34
2022-11-03T06:47:51.403Z,101286.31
2022-11-03T06:50:44.622Z,101296.84
2022-11-03T06:53:12.621Z,101284.06
2022-11-03T06:55:41.009Z,101280.69
2022-11-03T06:58:23.970Z,101273.66
2022-11-03T07:00:52.220Z,101278.56
2022-11-03T07:03:29.170Z,101289.75
2022-11-03T07:06:11.200Z,101282.59
2022-11-03T07:08:42.617Z,101286.72
2022-11-03T07:11:19.209Z,101277.03
2022-11-03T07:13:50.861Z,101285.31
2022-11-03T07:16:38.621Z,101278.50
2022-11-03T07:19:31.156Z,101288.03
2022-11-03T07:22:00.055Z,101286.47
2022-11-03T07:24:29.836Z,101279.75
2022-11-03T07:27:42.358Z,101277.91
2022-11-03T07:30:21.670Z,101286.03
2022-11-03T07:32:52.455Z,101285.31
2022-11-03T07:38:21.454Z,101293.84
2022-11-03T07:40:49.795Z,101291.06
2022-11-03T07:43:29.713Z,101288.06
2022-11-03T07:45:59.271Z,101274.69
2022-11-03T07:48:45.727Z,101292.47
2022-11-03T07:51:23.839Z,101285.47
2022-11-03T07:54:10.843Z,101287.66
2022-11-03T07:56:40.274Z,101290.81
2022-11-03T07:59:13.763Z,101294.41
2022-11-03T08:01:54.101Z,101285.84
2022-11-03T08:04:26.531Z,101279.13
2022-11-03T08:06:54.508Z,101278.78
2022-11-03T08:09:22.254Z,101287.38
2022-11-03T08:11:50.982Z,101284.81
2022-11-03T08:14:18.834Z,101283.78
2022-11-03T08:16:49.433Z,101288.91
2022-11-03T08:19:17.349Z,101302.81
2022-11-03T08:21:45.627Z,101287.44
2022-11-03T08:24:13.619Z,101287.06
2022-11-03T08:26:41.351Z,101298.00
2022-11-03T08:29:10.177Z,101286.13
2022-11-03T08:31:39.537Z,101282.88
2022-11-03T08:34:07.519Z,101290.47
2022-11-03T08:36:36.802Z,101286.09
2022-11-03T08:39:04.963Z,101288.22
2022-11-03T10:44:19.932Z,101209.72
2022-11-03T10:47:06.100Z,101211.94
2022-11-03T10:52:40.094Z,101193.22
2022-11-03T10:55:08.945Z,101181.47
2022-11-03T10:57:37.662Z,101185.69
2022-11-03T11:00:06.247Z,101180.59
2022-11-03T11:02:36.686Z,101173.78
2022-11-03T11:05:13.282Z,101166.28
2022-11-03T11:07:43.814Z,101181.31
2022-11-03T11:10:16.174Z,101175.59
2022-11-03T11:13:03.498Z,101153.38
2022-11-03T11:15:51.184Z,101151.06
2022-11-03T11:18:29.520Z,101159.31
2022-11-03T11:21:10.809Z,101154.28
2022-11-03T11:23:39.323Z,101162.44
2022-11-03T11:26:11.493Z,101160.75
2022-11-03T11:28:47.216Z,101149.38
2022-11-03T11:31:28.313Z,101148.38
2022-11-03T11:34:17.499Z,101142.63
2022-11-03T11:36:57.315Z,101127.53
2022-11-03T11:39:28.106Z,101141.69
2022-11-03T11:42:12.348Z,101147.00
2022-11-03T11:44:51.848Z,101131.38
2022-11-03T11:50:25.381Z,101158.16
2022-11-03T11:53:11.470Z,101156.50
2022-11-03T11:58:51.563Z,101142.22
2022-11-03T12:01:23.530Z,101148.81
2022-11-03T12:03:51.838Z,101141.59
2022-11-03T12:06:35.188Z,101151.72
2022-11-03T12:09:22.944Z,101153.75
2022-11-03T12:11:56.203Z,101147.78
2022-11-03T12:14:34.451Z,101144.28
2022-11-03T12:17:22.476Z,101151.34
2022-11-03T12:19:51.094Z,101156.66
2022-11-03T12:22:24.854Z,101140.94
2022-11-03T12:24:56.604Z,101130.91
2022-11-03T12:27:24.156Z,101132.38
2022-11-03T12:29:58.028Z,101122.34
2022-11-03T12:32:34.160Z,101126.19
2022-11-03T12:35:08.514Z,101128.34
2022-11-03T12:37:36.788Z,101129.50
2022-11-03T12:40:05.637Z,101133.97
2022-11-03T12:42:33.336Z,101134.06
2022-11-03T12:45:01.265Z,101143.16
2022-11-03T12:47:29.063Z,101141.28
2022-11-03T12:49:56.851Z,101140.38
2022-11-03T12:52:24.912Z,101127.56
2022-11-03T12:54:52.692Z,101120.59
2022-11-03T12:57:20.861Z,101129.28
2022-11-03T12:59:51.500Z,101118.00
2022-11-03T13:02:19.446Z,101118.16
2022-11-03T13:04:47.431Z,101116.34
2022-11-03T13:07:16.473Z,101119.06
2022-11-03T13:09:46.834Z,101119.66
2022-11-03T13:12:32.543Z,101111.22
2022-11-03T13:15:02.197Z,101111.41
2022-11-03T13:17:35.944Z,101110.88
2022-11-03T13:20:17.516Z,101114.63
2022-11-03T13:22:45.597Z,101115.81
2022-11-03T13:25:13.299Z,101115.81
2022-11-03T13:27:41.126Z,101113.47
2022-11-03T13:30:10.433Z,101117.03
2022-11-03T13:32:38.622Z,101111.41
2022-11-03T13:35:10.959Z,101115.00
2022-11-03T13:37:41.906Z,101116.19
2022-11-03T13:40:19.163Z,101104.78
2022-11-03T13:42:57.247Z,101106.53
2022-11-03T13:45:26.041Z,101103.47
2022-11-03T13:50:42.652Z,101102.47
2022-11-03T13:56:04.963Z,101101.97
2022-11-03T14:01:25.076Z,101100.16
2022-11-03T14:06:41.919Z,101096.44
2022-11-03T14:09:09.607Z,101094.44
2022-11-03T14:11:55.979Z,101090.66
2022-11-03T14:14:24.157Z,101086.94
2022-11-03T14:16:52.255Z,101091.38
2022-11-03T14:19:20.276Z,101090.03
2022-11-03T14:21:48.201Z,101085.78
2022-11-03T14:24:16.092Z,101086.94
2022-11-03T14:26:44.451Z,101082.03
2022-11-03T14:29:12.135Z,101081.53
2022-11-03T14:31:39.932Z,101082.88
2022-11-03T14:34:07.699Z,101080.50
2022-11-03T14:36:36.708Z,101077.25
2022-11-03T14:39:04.679Z,101074.84
2022-11-03T14:41:51.776Z,101078.97
2022-11-03T14:44:19.800Z,101089.50
2022-11-03T14:46:48.484Z,101077.91
2022-11-03T14:49:16.459Z,101074.19
2022-11-03T14:51:44.425Z,101072.66
2022-11-03T14:54:12.959Z,101077.41
2022-11-03T14:56:40.636Z,101074.16
2022-11-03T14:59:08.317Z,101070.78
2022-11-03T15:01:37.549Z,101068.72
2022-11-03T15:04:05.605Z,101072.47
2022-11-03T15:06:34.475Z,101073.00
2022-11-03T15:09:03.739Z,101072.13
2022-11-03T15:11:31.644Z,101069.41
2022-11-03T15:14:02.807Z,101077.22
2022-11-03T15:16:30.901Z,101076.00
2022-11-03T15:18:59.557Z,101068.88
2022-11-03T15:21:28.308Z,101072.94
2022-11-03T15:26:45.034Z,101075.81
2022-11-03T15:29:12.807Z,101079.06
2022-11-03T15:31:46.197Z,101084.84
2022-11-03T15:34:16.280Z,101078.38
2022-11-03T15:36:44.026Z,101073.56
2022-11-03T15:39:13.657Z,101073.75
2022-11-03T15:41:42.667Z,101067.09
2022-11-03T15:44:11.141Z,101065.22
2022-11-03T15:46:38.973Z,101067.06
2022-11-03T15:49:06.701Z,101064.00
2022-11-03T15:51:34.468Z,101054.47
2022-11-03T15:54:02.729Z,101059.91
2022-11-03T15:56:30.613Z,101049.03
2022-11-03T15:58:58.474Z,101050.03
2022-11-03T16:01:26.604Z,101044.56
2022-11-03T16:03:54.610Z,101038.59
2022-11-03T16:06:40.267Z,101031.13
2022-11-03T16:09:10.323Z,101034.69
2022-11-03T16:11:38.017Z,101034.16
2022-11-03T16:14:05.794Z,101044.50
2022-11-03T16:16:33.910Z,101033.97
2022-11-03T16:19:01.781Z,101038.19
2022-11-03T16:21:30.136Z,101037.00
2022-11-03T16:23:58.217Z,101034.28
2022-11-03T16:26:25.964Z,101031.25
2022-11-03T16:28:53.676Z,101037.38
2022-11-03T16:31:21.479Z,101031.94
2022-11-03T16:33:49.454Z,101029.22
2022-11-03T16:36:18.864Z,101025.47
2022-11-03T16:38:47.411Z,101024.28
2022-11-03T16:41:15.268Z,101025.47
2022-11-03T16:43:43.220Z,101028.31
2022-11-03T16:46:10.941Z,101021.22
2022-11-03T16:48:40.228Z,101025.47
2022-11-03T16:51:08.398Z,101017.44
2022-11-03T16:53:37.201Z,101012.19
2022-11-03T16:56:05.336Z,101008.94
2022-11-03T16:58:33.208Z,101007.09
2022-11-03T17:01:01.871Z,100997.22
2022-11-03T17:03:29.671Z,100984.66
2022-11-03T17:05:58.221Z,100982.09
2022-11-03T17:08:51.413Z,100982.28
2022-11-03T17:11:14.563Z,100984.31
2022-11-03T17:13:42.490Z,100981.28
2022-11-03T17:16:11.626Z,100973.44
2022-11-03T17:18:39.760Z,100968.00
2022-11-03T17:21:07.652Z,100975.13
2022-11-03T17:23:35.717Z,100973.44
2022-11-03T19:48:41.019Z,100873.50
2022-11-03T19:51:08.650Z,100872.47
2022-11-03T19:53:36.210Z,100866.72
2022-11-03T19:56:04.251Z,100875.53
2022-11-03T19:58:31.991Z,100877.59
2022-11-03T20:01:04.161Z,100877.78
2022-11-03T20:03:35.122Z,100872.19
2022-11-03T20:06:02.658Z,100880.66
2022-11-03T20:08:32.393Z,100879.78
2022-11-03T20:11:00.622Z,100883.03
2022-11-03T20:13:39.580Z,100880.34
2022-11-03T20:16:15.581Z,100882.88
2022-11-03T20:18:43.992Z,100877.44
2022-11-03T20:21:15.999Z,100882.41
2022-11-03T20:23:43.778Z,100884.75
2022-11-03T20:26:15.031Z,100890.19
2022-11-03T20:28:45.032Z,100888.50
2022-11-03T20:31:13.619Z,100889.19
2022-11-03T20:33:41.355Z,100886.66
2022-11-03T20:36:17.535Z,100890.38
2022-11-03T20:38:59.464Z,100886.47
2022-11-03T20:41:29.264Z,100886.28
2022-11-03T20:43:56.949Z,100888.53
2022-11-03T20:46:26.519Z,100895.97
2022-11-03T20:48:55.518Z,100894.44
2022-11-03T20:51:26.620Z,100888.19
2022-11-03T20:53:55.862Z,100887.81
2022-11-03T20:56:25.471Z,100885.13
2022-11-03T20:58:53.330Z,100888.50
2022-11-03T21:01:25.714Z,100890.53
2022-11-03T21:04:01.571Z,100887.81
2022-11-03T21:06:32.432Z,100877.25
2022-11-03T21:09:00.279Z,100874.91
2022-11-03T21:11:29.449Z,100877.91
2022-11-03T21:14:01.395Z,100868.38
2022-11-03T21:16:48.701Z,100869.38
2022-11-03T21:19:36.071Z,100862.03
2022-11-03T21:25:03.655Z,100870.50
2022-11-03T21:27:32.192Z,100873.03
2022-11-03T21:30:00.639Z,100864.75
2022-11-03T21:32:28.339Z,100865.75
2022-11-03T21:34:55.973Z,100870.00
2022-11-03T21:37:23.829Z,100870.28
2022-11-03T21:39:52.466Z,100863.44
2022-11-03T21:42:38.552Z,100863.81
2022-11-03T21:45:06.779Z,100872.63
2022-11-03T21:47:34.459Z,100869.41
2022-11-03T21:50:02.308Z,100865.97
2022-11-03T21:52:33.056Z,100867.19
2022-11-03T21:55:02.162Z,100865.75
2022-11-03T21:57:29.836Z,100864.06
2022-11-03T21:59:59.257Z,100858.31
2022-11-03T22:02:27.945Z,100864.56
2022-11-03T22:04:56.719Z,100864.91
2022-11-03T22:07:24.409Z,100860.13
2022-11-03T22:09:52.055Z,100863.34
2022-11-03T22:12:19.717Z,100859.94
2022-11-03T22:15:08.654Z,100859.44
2022-11-03T22:17:37.777Z,100851.13
2022-11-03T22:20:24.618Z,100854.84
2022-11-03T22:23:10.647Z,100849.91
2022-11-03T22:25:57.561Z,100850.44
2022-11-03T22:28:25.161Z,100852.13
2022-11-03T22:31:11.062Z,100853.66
2022-11-03T22:33:58.639Z,100856.91
2022-11-03T22:36:27.107Z,100861.81
2022-11-03T22:39:23.750Z,100857.41
2022-11-03T22:42:10.170Z,100859.56
2022-11-03T22:44:56.247Z,100859.94
2022-11-03T22:47:24.041Z,100859.44
2022-11-03T22:49:51.606Z,100854.47
2022-11-03T22:52:19.266Z,100857.41
2022-11-03T22:54:47.272Z,100860.13
2022-11-03T22:57:14.975Z,100867.78
2022-11-03T22:59:42.771Z,100864.69
2022-11-03T23:02:10.737Z,100866.41
2022-11-03T23:04:38.319Z,100868.94
2022-11-03T23:07:06.233Z,100870.13
2022-11-03T23:09:38.195Z,100877.56
2022-11-03T23:12:06.174Z,100882.63
2022-11-03T23:14:53.913Z,100883.09
2022-11-03T23:17:41.975Z,100888.84
2022-11-03T23:20:28.101Z,100887.00
2022-11-03T23:22:55.808Z,100887.44
2022-11-03T23:25:23.442Z,100897.13
2022-11-03T23:27:52.803Z,100893.72
2022-11-03T23:30:20.709Z,100895.19
2022-11-03T23:32:49.782Z,100895.06
2022-11-03T23:35:17.809Z,100895.53
2022-11-03T23:37:46.138Z,100898.09
2022-11-03T23:40:17.184Z,100911.81
2022-11-03T23:42:48.841Z,100909.25
2022-11-03T23:45:35.433Z,100921.13
2022-11-03T23:48:21.632Z,100915.69
2022-11-03T23:50:50.991Z,100918.03
2022-11-03T23:53:18.703Z,100918.72
2022-11-03T23:56:04.790Z,100913.59
2022-11-03T23:58:33.149Z,100919.25
